Time;durP1;ratioP1;P1;durP2;ratioP2;P2;SDS_P1;SDS_P2;PMS_P1;PMS_P2;Temp;Humidity;BMP_temperature;BMP_pressure;BME280_temperature;BME280_humidity;BME280_pressure;Samples;Min_cycle;Max_cycle;Signal;HPM_P1;HPM_P2
2021/04/23 00:00:53;;;;;;;9.98;5.80;;;5.30;92.20;;;;;;4976286;28;20030;-38
2021/04/23 00:03:22;;;;;;;13.45;4.60;;;5.30;92.30;;;;;;4972259;28;20027;-38
2021/04/23 00:05:50;;;;;;;11.52;5.15;;;5.30;92.40;;;;;;4980135;28;20081;-38
2021/04/23 00:08:17;;;;;;;8.65;4.25;;;5.30;92.70;;;;;;4969242;28;20030;-37
2021/04/23 00:10:44;;;;;;;9.00;4.20;;;5.20;92.40;;;;;;4978342;28;20026;-38
2021/04/23 00:13:10;;;;;;;8.40;4.47;;;5.20;92.40;;;;;;4971102;28;20030;-37
2021/04/23 00:15:36;;;;;;;9.77;4.78;;;5.20;92.60;;;;;;4975678;28;20557;-36
2021/04/23 00:18:02;;;;;;;14.13;4.75;;;5.20;92.60;;;;;;4973310;28;20073;-38
2021/04/23 00:20:28;;;;;;;11.95;5.22;;;5.20;92.80;;;;;;4973097;28;20077;-37
2021/04/23 00:22:55;;;;;;;12.02;5.55;;;5.10;92.80;;;;;;4975247;28;20031;-38
2021/04/23 00:25:26;;;;;;;11.93;4.95;;;5.10;92.80;;;;;;4971138;28;20038;-37
2021/04/23 00:27:58;;;;;;;12.88;5.45;;;5.10;93.00;;;;;;4977698;28;20069;-37
2021/04/23 00:30:26;;;;;;;10.38;5.72;;;5.00;93.00;;;;;;4969486;28;20092;-37
2021/04/23 00:32:53;;;;;;;10.23;5.50;;;5.10;93.10;;;;;;4978748;28;20010;-36
2021/04/23 00:35:21;;;;;;;11.18;4.55;;;5.00;93.10;;;;;;4970221;28;20018;-37
2021/04/23 00:37:47;;;;;;;10.85;4.53;;;5.00;93.10;;;;;;4978639;28;20129;-36
2021/04/23 00:40:38;;;;;;;7.32;4.95;;;4.90;93.10;;;;;;4969759;28;20046;-36
2021/04/23 00:43:05;;;;;;;10.98;5.03;;;4.90;93.30;;;;;;4962924;28;21082;-34
2021/04/23 00:45:31;;;;;;;14.23;5.60;;;4.90;93.30;;;;;;4968736;28;20043;-36
2021/04/23 00:48:00;;;;;;;11.68;5.07;;;4.90;93.40;;;;;;4978623;28;20027;-33
2021/04/23 00:50:44;;;;;;;5.95;4.45;;;4.90;93.40;;;;;;4968464;28;20108;-36
2021/04/23 00:53:15;;;;;;;8.40;4.38;;;4.80;93.40;;;;;;4978683;28;20165;-37
2021/04/23 00:55:41;;;;;;;9.60;4.65;;;4.80;93.40;;;;;;4967758;28;20141;-39
2021/04/23 00:58:13;;;;;;;8.57;4.93;;;4.80;93.40;;;;;;4978787;28;20116;-35
2021/04/23 01:00:41;;;;;;;8.73;4.75;;;4.80;93.50;;;;;;4967800;28;20592;-37
2021/04/23 01:03:09;;;;;;;8.93;4.20;;;4.80;93.50;;;;;;4969408;28;20150;-38
2021/04/23 01:05:35;;;;;;;8.25;4.50;;;4.70;93.50;;;;;;4968275;28;20086;-37
2021/04/23 01:08:02;;;;;;;8.90;4.57;;;4.70;93.50;;;;;;4974808;28;20050;-36
2021/04/23 01:10:28;;;;;;;6.20;4.07;;;4.70;93.50;;;;;;4987578;28;20552;-36
2021/04/23 01:12:54;;;;;;;7.85;4.40;;;4.70;93.50;;;;;;4975932;28;20072;-38
2021/04/23 01:15:20;;;;;;;6.93;3.92;;;4.70;93.50;;;;;;4985746;28;20394;-39
2021/04/23 01:17:46;;;;;;;6.90;3.88;;;4.70;93.60;;;;;;4978887;28;20035;-36
2021/04/23 01:20:12;;;;;;;7.30;3.33;;;4.70;93.50;;;;;;4983212;28;20056;-37
2021/04/23 01:22:39;;;;;;;7.07;3.60;;;4.70;93.50;;;;;;4981088;28;20399;-36
2021/04/23 01:25:05;;;;;;;9.40;3.72;;;4.70;93.50;;;;;;4980309;28;20031;-37
2021/04/23 01:27:31;;;;;;;10.10;3.78;;;4.70;93.50;;;;;;4983080;28;20642;-39
2021/04/23 01:29:57;;;;;;;5.00;3.00;;;4.70;93.50;;;;;;4978273;28;20113;-36
2021/04/23 01:32:23;;;;;;;5.85;3.40;;;4.70;93.50;;;;;;4985813;28;20029;-37
2021/04/23 01:34:49;;;;;;;6.95;3.58;;;4.70;93.50;;;;;;4975521;28;20030;-35
2021/04/23 01:37:14;;;;;;;7.97;3.80;;;4.70;93.50;;;;;;4985321;28;20334;-38
2021/04/23 01:39:43;;;;;;;4.97;3.30;;;4.70;93.50;;;;;;4975693;28;20022;-39
2021/04/23 01:42:11;;;;;;;8.35;3.03;;;4.60;93.50;;;;;;4986068;28;20353;-34
2021/04/23 01:44:37;;;;;;;6.55;2.88;;;4.60;93.50;;;;;;4971047;28;20038;-38
2021/04/23 01:47:04;;;;;;;7.57;3.08;;;4.50;93.50;;;;;;4986608;28;20056;-35
2021/04/23 01:49:31;;;;;;;6.55;3.00;;;4.50;93.60;;;;;;4974059;28;20649;-38
2021/04/23 01:52:11;;;;;;;8.15;3.60;;;4.50;93.60;;;;;;4986488;28;20034;-36
2021/04/23 01:54:38;;;;;;;6.60;3.67;;;4.40;93.60;;;;;;4973965;28;20053;-38
2021/04/23 01:57:04;;;;;;;8.18;3.45;;;4.40;93.70;;;;;;4986530;28;20028;-38
2021/04/23 01:59:31;;;;;;;6.93;3.13;;;4.40;93.70;;;;;;4975079;28;20061;-38
2021/04/23 02:01:57;;;;;;;5.20;2.83;;;4.30;93.70;;;;;;4981264;28;20102;-38
2021/04/23 02:04:26;;;;;;;5.13;3.03;;;4.30;93.70;;;;;;4974771;28;20049;-38
2021/04/23 02:06:52;;;;;;;5.45;3.35;;;4.20;93.70;;;;;;4969411;28;20034;-39
2021/04/23 02:09:18;;;;;;;8.23;3.55;;;4.20;93.80;;;;;;4973126;28;20030;-38
2021/04/23 02:11:49;;;;;;;8.23;3.55;;;4.20;93.90;;;;;;4971731;28;20103;-36
2021/04/23 02:14:16;;;;;;;5.40;3.42;;;4.20;93.90;;;;;;4971181;28;20045;-39
2021/04/23 02:16:43;;;;;;;4.95;3.28;;;4.20;93.90;;;;;;4973159;28;20481;-37
2021/04/23 02:19:13;;;;;;;8.23;3.80;;;4.20;94.00;;;;;;4968436;28;20534;-39
2021/04/23 02:21:40;;;;;;;6.63;3.47;;;4.10;93.90;;;;;;4975362;28;20039;-38
2021/04/23 02:24:08;;;;;;;8.88;4.78;;;4.00;94.00;;;;;;4967307;28;20045;-35
2021/04/23 02:26:35;;;;;;;7.25;3.33;;;4.00;94.20;;;;;;4976849;28;20545;-37
2021/04/23 02:29:04;;;;;;;10.88;5.10;;;4.00;94.20;;;;;;4967353;28;20058;-37
2021/04/23 02:31:30;;;;;;;6.38;3.28;;;4.00;94.20;;;;;;4976548;28;20626;-37
2021/04/23 02:34:01;;;;;;;10.50;4.35;;;4.00;94.20;;;;;;4966404;28;20367;-37
2021/04/23 02:36:27;;;;;;;10.57;4.35;;;3.90;94.20;;;;;;4974612;28;20022;-38
2021/04/23 02:38:53;;;;;;;7.85;4.75;;;3.90;94.40;;;;;;4966205;28;20054;-39
2021/04/23 02:41:20;;;;;;;10.30;4.25;;;3.90;94.40;;;;;;4978028;28;20448;-38
2021/04/23 02:43:52;;;;;;;5.72;3.50;;;3.90;94.40;;;;;;4965572;28;20042;-37
2021/04/23 02:46:20;;;;;;;6.32;3.78;;;3.90;94.40;;;;;;4968735;28;20027;-35
2021/04/23 02:48:47;;;;;;;8.50;4.00;;;3.90;94.30;;;;;;4984448;28;20334;-37
2021/04/23 02:51:21;;;;;;;12.40;3.80;;;3.80;94.50;;;;;;4973843;28;20613;-38
2021/04/23 02:53:47;;;;;;;7.70;3.75;;;3.80;94.50;;;;;;4984994;28;20019;-38
2021/04/23 02:56:16;;;;;;;7.03;4.40;;;3.70;94.60;;;;;;4975968;28;20031;-39
2021/04/23 02:58:41;;;;;;;12.15;5.38;;;3.70;95.40;;;;;;4982377;28;20030;-38
2021/04/23 03:01:11;;;;;;;10.85;4.57;;;3.70;95.30;;;;;;4977044;28;20089;-36
2021/04/23 03:03:37;;;;;;;13.45;5.13;;;3.60;95.20;;;;;;4981350;28;20446;-39
2021/04/23 03:06:04;;;;;;;14.00;6.40;;;3.60;95.50;;;;;;4978805;28;20147;-39
2021/04/23 03:08:30;;;;;;;13.70;5.60;;;3.60;95.70;;;;;;4978783;28;20022;-39
2021/04/23 03:11:00;;;;;;;12.40;5.68;;;3.60;96.30;;;;;;4981574;28;20101;-39
2021/04/23 03:13:32;;;;;;;8.48;5.22;;;3.60;96.20;;;;;;4975811;28;20117;-36
2021/04/23 03:15:57;;;;;;;10.82;5.70;;;3.60;96.20;;;;;;4983077;28;20418;-37
2021/04/23 03:18:27;;;;;;;14.13;6.43;;;3.60;96.20;;;;;;4974401;28;20054;-38
2021/04/23 03:20:55;;;;;;;12.48;5.68;;;3.50;96.10;;;;;;4982871;28;20146;-38
2021/04/23 03:23:21;;;;;;;12.65;5.88;;;3.50;96.20;;;;;;4974346;28;20026;-38
2021/04/23 03:25:47;;;;;;;13.25;7.70;;;3.50;96.20;;;;;;4982726;28;20489;-35
2021/04/23 03:28:13;;;;;;;13.98;7.60;;;3.50;96.70;;;;;;4965493;28;20034;-38
2021/04/23 03:30:41;;;;;;;13.45;6.65;;;3.50;97.30;;;;;;4965666;28;20031;-35
2021/04/23 03:33:09;;;;;;;13.43;6.07;;;3.50;97.10;;;;;;4977072;28;20054;-38
2021/04/23 03:35:34;;;;;;;15.30;6.82;;;3.50;96.90;;;;;;4965652;28;20027;-37
2021/04/23 03:38:02;;;;;;;13.23;6.22;;;3.50;96.80;;;;;;4977190;28;20033;-38
2021/04/23 03:40:30;;;;;;;12.70;5.85;;;3.50;96.60;;;;;;4965210;28;20023;-36
2021/04/23 03:42:57;;;;;;;16.60;6.95;;;3.50;96.50;;;;;;4976153;28;20180;-37
2021/04/23 03:45:24;;;;;;;13.52;5.88;;;3.40;96.70;;;;;;4966610;28;20474;-35
2021/04/23 03:47:51;;;;;;;10.80;5.72;;;3.40;96.60;;;;;;4973272;28;20026;-37
2021/04/23 03:50:21;;;;;;;13.60;6.03;;;3.40;96.70;;;;;;4968607;28;20022;-36
2021/04/23 03:52:47;;;;;;;10.18;6.03;;;3.40;96.60;;;;;;4971606;28;20023;-39
2021/04/23 03:55:20;;;;;;;11.07;6.47;;;3.40;96.60;;;;;;4970480;28;20089;-36
2021/04/23 03:57:46;;;;;;;10.98;6.00;;;3.30;96.90;;;;;;4969973;28;20029;-37
2021/04/23 04:00:14;;;;;;;9.65;5.88;;;3.30;96.70;;;;;;4972011;28;20023;-39
2021/04/23 04:02:40;;;;;;;16.80;6.40;;;3.30;96.50;;;;;;4968777;28;20026;-37
2021/04/23 04:05:08;;;;;;;12.57;5.65;;;3.20;96.60;;;;;;4975496;28;20665;-35
2021/04/23 04:07:34;;;;;;;19.30;6.60;;;3.20;96.60;;;;;;4982684;28;20018;-38
2021/04/23 04:10:00;;;;;;;17.35;7.03;;;3.20;96.90;;;;;;4973303;28;20053;-37
2021/04/23 04:12:26;;;;;;;16.90;6.65;;;3.20;97.40;;;;;;4983071;28;20019;-38
2021/04/23 04:14:51;;;;;;;18.45;8.15;;;3.20;97.60;;;;;;4972720;28;20033;-35
2021/04/23 04:17:17;;;;;;;15.13;6.57;;;3.30;97.50;;;;;;4985130;28;20376;-36
2021/04/23 04:19:43;;;;;;;21.38;8.43;;;3.30;97.40;;;;;;4971731;28;20548;-38
2021/04/23 04:22:08;;;;;;;15.48;8.15;;;3.30;97.20;;;;;;4983678;28;20476;-39
2021/04/23 04:24:34;;;;;;;16.85;9.30;;;3.40;97.20;;;;;;4972134;28;20095;-38
2021/04/23 04:26:59;;;;;;;23.23;9.10;;;3.40;97.30;;;;;;4984112;28;20030;-36
2021/04/23 04:29:25;;;;;;;15.63;8.88;;;3.40;97.40;;;;;;4973399;28;20462;-36
2021/04/23 04:31:52;;;;;;;12.43;7.25;;;3.50;97.40;;;;;;4984534;28;20061;-38
2021/04/23 04:34:21;;;;;;;15.77;7.15;;;3.50;97.40;;;;;;4979861;28;20026;-37
2021/04/23 04:36:47;;;;;;;13.43;7.38;;;3.50;97.30;;;;;;4983139;28;20105;-38
2021/04/23 04:39:12;;;;;;;14.68;8.60;;;3.50;97.20;;;;;;4981598;28;20407;-38
2021/04/23 04:41:38;;;;;;;19.45;7.72;;;3.60;97.30;;;;;;4981185;28;20556;-34
2021/04/23 04:44:05;;;;;;;15.88;7.30;;;3.60;97.30;;;;;;4983548;28;20056;-35
2021/04/23 04:46:31;;;;;;;12.75;6.43;;;3.70;97.20;;;;;;4978452;28;20027;-35
2021/04/23 04:48:56;;;;;;;15.02;6.78;;;3.80;97.10;;;;;;4985858;28;20642;-39
2021/04/23 04:51:22;;;;;;;12.93;7.72;;;3.80;97.10;;;;;;4976007;28;20160;-39
2021/04/23 04:53:48;;;;;;;12.07;6.35;;;3.90;97.00;;;;;;4985816;28;20035;-38
2021/04/23 04:56:15;;;;;;;12.27;6.75;;;3.90;96.90;;;;;;4976471;28;20037;-36
2021/04/23 04:58:42;;;;;;;15.20;7.07;;;4.00;96.80;;;;;;4986812;28;20042;-36
2021/04/23 05:01:08;;;;;;;14.15;7.25;;;4.00;96.80;;;;;;4978683;28;20019;-39
2021/04/23 05:03:38;;;;;;;13.77;7.72;;;4.10;96.90;;;;;;4981459;28;20497;-36
2021/04/23 05:06:05;;;;;;;10.40;6.18;;;4.10;96.70;;;;;;4974008;28;20059;-37
2021/04/23 05:08:31;;;;;;;15.68;6.63;;;4.10;96.60;;;;;;4987680;28;20041;-38
2021/04/23 05:10:57;;;;;;;16.73;7.15;;;4.10;96.60;;;;;;4975672;28;20019;-39
2021/04/23 05:13:22;;;;;;;10.15;5.50;;;4.10;96.60;;;;;;4986671;28;20062;-37
2021/04/23 05:15:48;;;;;;;15.02;6.40;;;4.10;96.60;;;;;;4977705;28;20030;-39
2021/04/23 05:18:14;;;;;;;16.73;7.68;;;4.10;96.70;;;;;;4984087;28;20128;-35
2021/04/23 05:20:40;;;;;;;17.88;7.30;;;4.10;97.50;;;;;;4980658;28;20148;-36
2021/04/23 05:23:08;;;;;;;15.98;8.00;;;4.10;97.90;;;;;;4981479;28;20089;-35
2021/04/23 05:25:35;;;;;;;14.68;7.38;;;4.20;97.90;;;;;;4982176;28;20046;-36
2021/04/23 05:28:01;;;;;;;14.30;6.95;;;4.30;97.50;;;;;;4978978;28;20022;-37
2021/04/23 05:30:29;;;;;;;18.23;8.45;;;4.40;97.50;;;;;;4985247;28;20117;-38
2021/04/23 05:32:56;;;;;;;11.20;6.53;;;4.60;97.50;;;;;;4976404;28;20014;-39
2021/04/23 05:35:22;;;;;;;16.13;7.60;;;4.70;97.30;;;;;;4985575;28;20034;-37
2021/04/23 05:37:48;;;;;;;12.18;6.30;;;4.70;97.30;;;;;;4975944;28;20110;-36
2021/04/23 05:40:20;;;;;;;13.07;6.60;;;4.80;97.10;;;;;;4985068;28;20111;-38
2021/04/23 05:42:46;;;;;;;10.75;5.75;;;4.90;96.90;;;;;;4983424;28;20061;-39
2021/04/23 05:45:13;;;;;;;11.70;5.40;;;5.00;96.80;;;;;;4980292;28;20062;-38
2021/04/23 05:47:39;;;;;;;13.43;4.78;;;5.10;96.60;;;;;;4973751;28;20084;-38
2021/04/23 05:50:08;;;;;;;8.82;5.10;;;5.30;96.50;;;;;;4972947;28;20041;-39
2021/04/23 05:52:34;;;;;;;8.23;5.47;;;5.40;96.40;;;;;;4978577;28;20509;-36
2021/04/23 05:54:59;;;;;;;11.93;5.22;;;5.50;96.20;;;;;;4983522;28;20469;-37
2021/04/23 05:57:25;;;;;;;9.40;5.50;;;5.60;96.20;;;;;;4982348;28;20541;-38
2021/04/23 05:59:50;;;;;;;9.32;5.35;;;5.60;96.10;;;;;;4984746;28;20030;-37
2021/04/23 06:02:16;;;;;;;8.15;5.47;;;5.70;96.00;;;;;;4978774;28;20414;-40
2021/04/23 06:04:42;;;;;;;10.32;5.20;;;5.80;95.90;;;;;;4985114;28;20077;-33
2021/04/23 06:07:08;;;;;;;9.10;5.68;;;5.80;95.80;;;;;;4979969;28;20023;-38
2021/04/23 06:09:34;;;;;;;6.80;4.88;;;5.90;95.80;;;;;;4979072;28;20293;-36
2021/04/23 06:11:59;;;;;;;13.05;5.15;;;6.00;95.70;;;;;;4981658;28;20034;-38
2021/04/23 06:14:25;;;;;;;9.82;5.75;;;6.00;95.60;;;;;;4976082;28;20054;-38
2021/04/23 06:16:51;;;;;;;11.85;5.45;;;6.10;95.60;;;;;;4983112;28;20105;-37
2021/04/23 06:19:17;;;;;;;12.27;6.00;;;6.20;95.60;;;;;;4974970;28;20034;-38
2021/04/23 06:21:43;;;;;;;10.70;5.57;;;6.30;95.50;;;;;;4984105;28;20035;-37
2021/04/23 06:24:09;;;;;;;9.27;4.38;;;6.30;95.40;;;;;;4977616;28;20051;-34
2021/04/23 06:26:34;;;;;;;8.63;4.72;;;6.40;95.30;;;;;;4966333;28;20031;-38
2021/04/23 06:29:00;;;;;;;8.73;5.72;;;6.50;95.20;;;;;;4972419;28;20043;-37
2021/04/23 06:31:25;;;;;;;11.73;5.80;;;6.50;95.20;;;;;;4985842;28;20117;-38
2021/04/23 06:33:51;;;;;;;7.97;5.45;;;6.60;95.20;;;;;;4984434;28;20100;-37
2021/04/23 06:36:18;;;;;;;11.25;5.78;;;6.60;95.20;;;;;;4986149;28;20076;-37
2021/04/23 06:38:44;;;;;;;8.85;4.55;;;6.80;95.10;;;;;;4975300;28;20027;-38
2021/04/23 06:41:11;;;;;;;7.43;4.97;;;6.80;95.00;;;;;;4983824;28;20842;-39
2021/04/23 06:43:37;;;;;;;10.30;6.05;;;6.90;95.00;;;;;;4977491;28;20381;-36
2021/04/23 06:46:03;;;;;;;10.68;5.50;;;7.00;94.90;;;;;;4981419;28;20466;-38
2021/04/23 06:48:28;;;;;;;8.30;5.07;;;7.00;94.90;;;;;;4979775;28;20126;-36
2021/04/23 06:50:54;;;;;;;8.30;5.30;;;7.10;94.80;;;;;;4978643;28;20070;-38
2021/04/23 06:53:20;;;;;;;6.70;5.10;;;7.20;94.80;;;;;;4982144;28;20113;-38
2021/04/23 06:55:46;;;;;;;10.00;4.78;;;7.20;94.70;;;;;;4975860;28;20026;-40
2021/04/23 06:58:13;;;;;;;8.43;5.18;;;7.30;94.80;;;;;;4983553;28;20184;-38
2021/04/23 07:00:40;;;;;;;9.73;5.28;;;7.40;94.70;;;;;;4982588;28;20812;-37
2021/04/23 07:03:09;;;;;;;8.43;4.43;;;7.50;94.70;;;;;;4977439;28;20370;-38
2021/04/23 07:05:35;;;;;;;9.50;4.80;;;7.60;94.60;;;;;;4975933;28;20487;-36
2021/04/23 07:08:01;;;;;;;9.95;4.65;;;7.80;94.50;;;;;;4966198;28;20026;-38
2021/04/23 07:10:31;;;;;;;11.32;4.82;;;7.90;94.40;;;;;;4977793;28;20391;-34
2021/04/23 07:12:57;;;;;;;9.85;4.97;;;8.00;94.30;;;;;;4966221;28;20023;-37
2021/04/23 07:15:26;;;;;;;10.65;5.03;;;8.10;94.20;;;;;;4978056;28;20022;-38
2021/04/23 07:17:52;;;;;;;12.40;4.80;;;8.10;94.20;;;;;;4976484;28;20018;-37
2021/04/23 07:20:19;;;;;;;10.85;5.13;;;8.20;94.10;;;;;;4982039;28;20022;-38
2021/04/23 07:22:48;;;;;;;9.27;4.25;;;8.30;94.00;;;;;;4966518;28;20023;-38
2021/04/23 07:25:17;;;;;;;8.48;4.00;;;8.40;93.90;;;;;;4974945;28;20034;-40
2021/04/23 07:27:43;;;;;;;6.22;2.88;;;8.40;93.80;;;;;;4967870;28;20027;-38
2021/04/23 07:30:12;;;;;;;7.60;3.33;;;8.50;93.70;;;;;;4973381;28;20033;-41
2021/04/23 07:32:38;;;;;;;8.43;2.90;;;8.50;93.50;;;;;;4979131;28;20665;-37
2021/04/23 07:35:04;;;;;;;7.82;3.15;;;8.50;93.20;;;;;;4979836;28;20627;-36
2021/04/23 07:37:30;;;;;;;10.02;2.85;;;8.60;93.20;;;;;;4978684;28;20076;-38
2021/04/23 07:39:56;;;;;;;10.32;3.33;;;8.70;93.10;;;;;;4980729;28;20023;-37
2021/04/23 07:42:21;;;;;;;8.80;3.42;;;8.70;92.80;;;;;;4981304;28;20034;-38
2021/04/23 07:44:47;;;;;;;10.05;2.95;;;8.80;92.40;;;;;;4980843;28;20031;-37
2021/04/23 07:47:12;;;;;;;16.33;3.13;;;8.80;92.10;;;;;;4975943;28;20026;-37
2021/04/23 07:49:38;;;;;;;13.02;3.83;;;8.90;91.70;;;;;;4966606;28;20027;-39
2021/04/23 07:52:04;;;;;;;7.28;2.28;;;8.90;91.00;;;;;;4976027;28;20035;-38
2021/04/23 07:54:30;;;;;;;6.55;2.30;;;8.90;91.00;;;;;;4964752;28;20026;-37
2021/04/23 07:56:56;;;;;;;7.03;2.30;;;8.90;90.80;;;;;;4972217;28;20153;-38
2021/04/23 07:59:21;;;;;;;11.38;3.13;;;9.00;90.90;;;;;;4985393;28;20034;-39
2021/04/23 08:01:50;;;;;;;9.60;3.20;;;9.00;90.20;;;;;;4971501;28;20106;-39
2021/04/23 08:04:16;;;;;;;10.02;3.20;;;9.00;88.30;;;;;;4976162;28;20077;-37
2021/04/23 08:06:42;;;;;;;9.10;2.85;;;9.00;88.50;;;;;;4976878;28;20519;-36
2021/04/23 08:09:07;;;;;;;10.43;3.47;;;9.00;89.00;;;;;;4986282;28;20022;-38
2021/04/23 08:11:33;;;;;;;6.82;2.88;;;9.00;88.90;;;;;;4980435;28;20027;-38
2021/04/23 08:13:58;;;;;;;8.00;2.63;;;9.00;89.00;;;;;;4984248;28;20053;-36
2021/04/23 08:16:24;;;;;;;10.02;2.70;;;9.00;87.40;;;;;;4983133;28;20038;-40
2021/04/23 08:18:53;;;;;;;11.35;2.65;;;9.00;87.30;;;;;;4985176;28;20026;-36
2021/04/23 08:21:19;;;;;;;9.65;2.22;;;9.00;87.90;;;;;;4984900;28;20034;-37
2021/04/23 08:23:46;;;;;;;14.07;3.55;;;9.10;86.20;;;;;;4978918;28;20030;-35
2021/04/23 08:26:12;;;;;;;14.32;2.88;;;9.00;85.60;;;;;;4986823;28;20109;-37
2021/04/23 08:28:38;;;;;;;10.40;3.58;;;9.00;85.90;;;;;;4976587;28;20447;-38
2021/04/23 08:31:03;;;;;;;7.95;2.25;;;9.10;86.00;;;;;;4986214;28;20049;-39
2021/04/23 08:33:29;;;;;;;6.82;2.15;;;9.00;86.30;;;;;;4976488;28;20029;-38
2021/04/23 08:35:54;;;;;;;10.95;1.95;;;9.10;86.50;;;;;;4987007;28;20230;-37
2021/04/23 08:38:24;;;;;;;10.15;2.67;;;9.20;86.10;;;;;;4974783;28;20855;-39
2021/04/23 08:40:50;;;;;;;11.32;2.15;;;9.20;85.20;;;;;;4987731;28;20177;-37
2021/04/23 08:43:16;;;;;;;8.38;2.35;;;9.10;84.70;;;;;;4974376;28;20073;-38
2021/04/23 08:45:42;;;;;;;9.32;2.63;;;9.20;85.00;;;;;;4986988;28;20066;-39
2021/04/23 08:48:08;;;;;;;7.97;2.53;;;9.20;85.30;;;;;;4976259;28;20038;-37
2021/04/23 08:50:34;;;;;;;11.13;3.65;;;9.30;84.70;;;;;;4985350;28;20030;-38
2021/04/23 08:53:00;;;;;;;8.32;2.50;;;9.40;83.70;;;;;;4978449;28;20093;-42
2021/04/23 08:55:27;;;;;;;8.70;2.75;;;9.40;83.40;;;;;;4983306;28;20050;-38
2021/04/23 08:57:53;;;;;;;9.85;3.17;;;9.30;83.00;;;;;;4980386;28;20019;-36
2021/04/23 09:00:20;;;;;;;12.40;3.47;;;9.30;83.10;;;;;;4981492;28;20034;-37
2021/04/23 09:02:45;;;;;;;11.43;3.10;;;9.30;83.20;;;;;;4980970;28;20351;-37
2021/04/23 09:05:13;;;;;;;9.43;2.90;;;9.40;82.80;;;;;;4980360;28;20050;-37
2021/04/23 09:07:40;;;;;;;14.25;4.00;;;9.40;82.90;;;;;;4984724;28;20061;-38
2021/04/23 09:10:21;;;;;;;15.48;3.78;;;9.30;83.30;;;;;;4976392;28;20576;-38
2021/04/23 09:13:12;;;;;;;9.95;3.17;;;9.30;83.50;;;;;;4985263;28;20046;-39
2021/04/23 09:15:41;;;;;;;9.85;3.60;;;9.20;83.40;;;;;;4967403;28;20023;-37
2021/04/23 09:18:14;;;;;;;10.85;3.17;;;9.10;82.80;;;;;;4970259;28;20030;-36
2021/04/23 09:20:45;;;;;;;11.90;3.45;;;9.10;82.90;;;;;;4978423;28;20052;-37
2021/04/23 09:23:19;;;;;;;8.07;3.00;;;9.10;82.90;;;;;;4984982;28;20034;-36
2021/04/23 09:25:50;;;;;;;6.55;3.17;;;9.20;83.10;;;;;;4977153;28;20062;-36
2021/04/23 09:28:31;;;;;;;9.73;3.80;;;9.20;83.40;;;;;;4985992;28;20095;-39
2021/04/23 09:30:57;;;;;;;12.20;3.25;;;9.20;83.20;;;;;;4967538;28;20065;-39
2021/04/23 09:33:24;;;;;;;11.63;3.47;;;9.20;83.50;;;;;;4970294;28;20098;-38
2021/04/23 09:35:50;;;;;;;9.68;3.17;;;9.20;82.80;;;;;;4976089;28;20030;-39
2021/04/23 09:38:16;;;;;;;9.25;3.60;;;9.10;82.90;;;;;;4985102;28;20034;-39
2021/04/23 09:40:43;;;;;;;11.82;3.67;;;9.20;83.40;;;;;;4978216;28;20022;-39
2021/04/23 09:43:09;;;;;;;8.50;3.42;;;9.20;83.10;;;;;;4983329;28;20033;-38
2021/04/23 09:45:48;;;;;;;13.23;3.83;;;9.30;82.60;;;;;;4982627;28;20084;-38
2021/04/23 09:48:24;;;;;;;11.90;3.58;;;9.30;82.70;;;;;;4985237;28;20022;-39
2021/04/23 09:50:51;;;;;;;6.97;2.83;;;9.40;82.70;;;;;;4974719;28;20048;-39
2021/04/23 09:53:16;;;;;;;11.57;2.92;;;9.50;82.90;;;;;;4986125;28;20482;-39
2021/04/23 09:55:42;;;;;;;8.82;3.03;;;9.60;83.00;;;;;;4973664;28;20137;-37
2021/04/23 09:58:09;;;;;;;10.50;3.10;;;9.70;82.50;;;;;;4986982;28;20038;-38
2021/04/23 10:00:38;;;;;;;14.68;4.35;;;9.80;82.20;;;;;;4974976;28;20043;-38
2021/04/23 10:03:05;;;;;;;7.90;3.03;;;9.90;81.70;;;;;;4977859;28;20023;-35
2021/04/23 10:05:39;;;;;;;11.40;3.30;;;9.90;81.70;;;;;;4975793;28;20050;-38
2021/04/23 10:08:26;;;;;;;6.30;2.80;;;10.00;80.90;;;;;;4976245;28;20026;-37
2021/04/23 10:10:53;;;;;;;11.75;3.13;;;10.00;81.40;;;;;;4981850;28;20026;-38
2021/04/23 10:13:28;;;;;;;10.32;3.17;;;10.00;81.30;;;;;;4968336;28;20035;-37
2021/04/23 10:15:53;;;;;;;9.32;3.85;;;10.10;80.40;;;;;;4978292;28;20038;-37
2021/04/23 10:18:19;;;;;;;11.60;3.58;;;10.10;80.80;;;;;;4969180;28;20027;-39
2021/04/23 10:20:47;;;;;;;6.97;2.85;;;10.10;80.50;;;;;;4972490;28;20121;-38
2021/04/23 10:23:15;;;;;;;9.63;3.13;;;10.20;80.90;;;;;;4971796;28;20118;-38
2021/04/23 10:25:42;;;;;;;10.10;3.40;;;10.20;79.80;;;;;;4972003;28;20057;-37
2021/04/23 10:28:10;;;;;;;8.73;2.78;;;10.20;79.30;;;;;;4973135;28;20027;-39
2021/04/23 10:30:40;;;;;;;10.38;3.15;;;10.20;79.90;;;;;;4970281;28;20038;-38
2021/04/23 10:33:09;;;;;;;10.82;2.67;;;10.20;78.60;;;;;;4965845;28;20106;-38
2021/04/23 10:35:36;;;;;;;11.55;3.85;;;10.30;78.80;;;;;;4969481;28;20065;-37
2021/04/23 10:38:13;;;;;;;11.85;3.38;;;10.30;78.50;;;;;;4982794;28;20030;-39
2021/04/23 10:40:41;;;;;;;5.82;2.58;;;10.40;78.20;;;;;;4983985;28;20031;-38
2021/04/23 10:43:16;;;;;;;5.68;2.58;;;10.40;79.40;;;;;;4979512;28;20545;-37
2021/04/23 10:45:50;;;;;;;6.82;2.63;;;10.40;79.20;;;;;;4982196;28;20069;-40
2021/04/23 10:48:16;;;;;;;7.30;2.58;;;10.50;79.30;;;;;;4982137;28;20057;-39
2021/04/23 10:50:49;;;;;;;7.20;2.10;;;10.60;79.30;;;;;;4966296;28;20471;-37
2021/04/23 10:53:18;;;;;;;8.05;2.85;;;10.70;79.60;;;;;;4983652;28;20030;-36
2021/04/23 10:56:05;;;;;;;5.95;2.90;;;10.80;79.00;;;;;;4984007;28;20057;-36
2021/04/23 10:58:31;;;;;;;10.20;3.15;;;10.80;78.50;;;;;;4983470;28;20554;-38
2021/04/23 11:00:57;;;;;;;7.70;2.50;;;10.90;77.60;;;;;;4984167;28;20153;-40
2021/04/23 11:03:24;;;;;;;7.90;2.67;;;11.00;77.60;;;;;;4977659;28;20073;-34
2021/04/23 11:06:06;;;;;;;10.90;3.33;;;11.10;77.10;;;;;;4984944;28;20157;-38
2021/04/23 11:08:34;;;;;;;6.35;2.78;;;11.20;77.40;;;;;;4980228;28;20035;-35
2021/04/23 11:11:00;;;;;;;5.00;2.83;;;11.30;77.00;;;;;;4965167;28;20023;-37
2021/04/23 11:13:27;;;;;;;7.60;2.92;;;11.40;76.80;;;;;;4977810;28;20048;-38
2021/04/23 11:16:17;;;;;;;8.85;3.90;;;11.50;76.40;;;;;;4965871;28;20038;-37
2021/04/23 11:18:57;;;;;;;6.35;2.53;;;11.60;76.40;;;;;;4977486;28;20428;-37
2021/04/23 11:21:36;;;;;;;7.10;2.72;;;11.70;75.40;;;;;;4965548;28;20121;-38
2021/04/23 11:24:27;;;;;;;9.60;3.00;;;11.80;75.30;;;;;;4979701;28;20047;-40
2021/04/23 11:27:03;;;;;;;6.80;2.70;;;11.90;75.40;;;;;;4966887;28;20022;-37
2021/04/23 11:29:30;;;;;;;8.18;3.67;;;11.90;74.70;;;;;;4976743;28;20026;-38
2021/04/23 11:32:27;;;;;;;6.57;2.70;;;11.90;74.10;;;;;;4966615;28;20027;-38
2021/04/23 11:35:17;;;;;;;8.13;3.40;;;12.00;74.20;;;;;;4976141;28;20031;-38
2021/04/23 11:37:42;;;;;;;9.38;3.38;;;12.20;72.60;;;;;;4967051;28;20085;-39
2021/04/23 11:40:19;;;;;;;9.82;2.97;;;12.30;73.30;;;;;;4979625;28;20052;-39
2021/04/23 11:42:50;;;;;;;9.60;3.13;;;12.40;72.40;;;;;;4984057;28;20035;-38
2021/04/23 11:45:21;;;;;;;7.85;2.78;;;12.40;71.60;;;;;;4981886;28;20043;-37
2021/04/23 11:47:58;;;;;;;7.55;2.40;;;12.50;72.80;;;;;;4986986;28;20031;-39
2021/04/23 11:50:29;;;;;;;8.23;3.13;;;12.70;72.40;;;;;;4978050;28;20061;-39
2021/04/23 11:53:08;;;;;;;8.50;3.17;;;12.90;72.20;;;;;;4986642;28;20019;-39
2021/04/23 11:55:36;;;;;;;9.80;2.80;;;13.10;70.60;;;;;;4977558;28;20461;-37
2021/04/23 11:58:04;;;;;;;8.52;2.80;;;13.10;69.10;;;;;;4986352;28;20089;-38
2021/04/23 12:00:34;;;;;;;6.50;2.50;;;13.10;67.90;;;;;;4976913;28;20041;-36
2021/04/23 12:03:05;;;;;;;7.35;2.70;;;13.00;67.70;;;;;;4978474;28;20033;-38
2021/04/23 12:05:47;;;;;;;10.07;2.95;;;13.00;64.50;;;;;;4979693;28;20371;-38
2021/04/23 12:08:16;;;;;;;3.85;2.17;;;13.00;66.20;;;;;;4970075;28;20101;-38
2021/04/23 12:10:45;;;;;;;5.80;2.53;;;13.00;67.30;;;;;;4979691;28;20027;-38
2021/04/23 12:13:17;;;;;;;7.05;2.67;;;13.00;67.20;;;;;;4979796;28;20045;-37
2021/04/23 12:15:45;;;;;;;4.75;1.95;;;13.10;67.00;;;;;;4983516;28;20030;-38
2021/04/23 12:18:12;;;;;;;5.75;2.60;;;13.30;67.50;;;;;;4988170;28;20082;-38
2021/04/23 12:20:50;;;;;;;8.77;3.42;;;13.40;66.10;;;;;;4975359;28;20133;-38
2021/04/23 12:23:18;;;;;;;6.82;2.55;;;13.40;65.50;;;;;;4988670;28;20033;-38
2021/04/23 12:25:52;;;;;;;11.95;2.63;;;13.40;65.00;;;;;;4975711;28;20066;-37
2021/04/23 12:28:35;;;;;;;5.35;2.75;;;13.40;64.90;;;;;;4987923;28;20087;-38
2021/04/23 12:31:19;;;;;;;5.68;2.60;;;13.30;65.60;;;;;;4975597;28;20027;-39
2021/04/23 12:33:52;;;;;;;9.95;3.17;;;13.30;66.10;;;;;;4987552;28;20046;-37
2021/04/23 12:36:24;;;;;;;7.93;3.08;;;13.30;65.70;;;;;;4980418;28;20014;-35
2021/04/23 12:38:58;;;;;;;4.63;2.10;;;13.30;66.30;;;;;;4985045;28;20034;-38
2021/04/23 12:41:34;;;;;;;6.35;2.78;;;13.30;66.80;;;;;;4977986;28;20038;-38
2021/04/23 12:44:05;;;;;;;7.32;2.47;;;13.30;66.60;;;;;;4987186;28;20104;-38
2021/04/23 12:46:37;;;;;;;7.57;2.92;;;13.30;66.70;;;;;;4980342;28;20031;-34
2021/04/23 12:49:07;;;;;;;6.90;2.72;;;13.40;65.20;;;;;;4986654;28;20113;-38
2021/04/23 12:51:42;;;;;;;10.07;2.90;;;13.30;65.20;;;;;;4981499;28;20018;-37
2021/04/23 12:54:08;;;;;;;7.38;2.95;;;13.30;65.80;;;;;;4968691;28;20026;-39
2021/04/23 12:56:35;;;;;;;10.27;3.03;;;13.30;65.20;;;;;;4979623;28;20034;-38